Terminal Aerodrome Forecast
Issued by NWS Rapid City, SD

Home | Current Version | Previous Version | Text Only | Print | Product List | Glossary On
Versions: 1 2 3 4 5 6 7 8 9 10 11 12 13 14 15 16 17 18 19
573
FTUS43 KUNR 231720
TAFRAP
TAF
KRAP 231720Z 2318/2418 14014G24KT P6SM SCT200
     FM232300 04014KT P6SM SCT040 OVC100
     FM240100 36020G30KT P6SM -SHRA SCT020 OVC040
     FM240400 34033G45KT 5SM -SHRA BR OVC015
     FM240900 34030G40KT 3SM -SN BR OVC012=

USA.gov is the U.S. government's official web portal to all federal, state and local government web resources and services.